createdAt,value
2023-12-16T00:01:24.357Z,90.61
2023-12-16T00:03:51.573Z,90.72
2023-12-16T00:06:21.872Z,90.72
2023-12-16T00:08:49.654Z,90.27
2023-12-16T00:11:16.894Z,90.23
2023-12-16T00:13:44.634Z,89.95
2023-12-16T00:16:12.464Z,90.29
2023-12-16T00:18:40.080Z,90.22
2023-12-16T00:21:09.098Z,91.47
2023-12-16T00:23:36.369Z,91.47
2023-12-16T00:26:03.545Z,90.95
2023-12-16T00:28:30.625Z,91.89
2023-12-16T00:30:59.248Z,91.71
2023-12-16T00:33:26.468Z,91.48
2023-12-16T00:35:54.526Z,91.48
2023-12-16T00:38:21.665Z,91.23
2023-12-16T00:40:48.663Z,91.85
2023-12-16T00:43:15.769Z,92.16
2023-12-16T00:45:43.029Z,92.29
2023-12-16T00:48:10.207Z,92.28
2023-12-16T00:50:39.832Z,92.42
2023-12-16T00:53:06.903Z,92.42
2023-12-16T00:55:33.971Z,92.22
2023-12-16T00:58:01.035Z,91.68
2023-12-16T01:00:28.600Z,91.62
2023-12-16T01:02:55.657Z,91.98
2023-12-16T01:05:22.705Z,91.98
2023-12-16T01:07:49.787Z,91.38
2023-12-16T01:10:17.040Z,91.15
2023-12-16T01:12:44.135Z,91.08
2023-12-16T01:15:11.768Z,90.41
2023-12-16T01:17:39.293Z,90.72
2023-12-16T01:20:07.866Z,90.78
2023-12-16T01:22:35.002Z,90.43
2023-12-16T01:25:02.181Z,91.09
2023-12-16T01:27:29.353Z,90.81
2023-12-16T01:29:56.412Z,90.20
2023-12-16T01:32:23.425Z,91.06
2023-12-16T01:34:50.483Z,91.32
2023-12-16T01:37:17.592Z,91.67
2023-12-16T01:39:44.697Z,98.17
2023-12-16T01:42:11.830Z,93.78
2023-12-16T01:44:38.888Z,91.64
2023-12-16T01:47:07.186Z,91.41
2023-12-16T01:49:34.861Z,91.44
2023-12-16T01:52:02.465Z,91.23
2023-12-16T01:54:29.659Z,91.03
2023-12-16T01:57:00.338Z,91.49
2023-12-16T01:59:28.658Z,91.39
2023-12-16T02:01:57.387Z,91.53
2023-12-16T02:04:24.701Z,90.97
2023-12-16T02:06:52.094Z,91.05
2023-12-16T02:09:21.286Z,91.15
2023-12-16T02:11:48.381Z,91.05
2023-12-16T02:14:15.534Z,91.19
2023-12-16T02:16:43.729Z,91.32
2023-12-16T02:19:28.325Z,91.59
2023-12-16T02:21:56.132Z,91.49
2023-12-16T02:24:23.350Z,91.48
2023-12-16T02:26:50.430Z,91.48
2023-12-16T02:29:18.991Z,92.83
2023-12-16T02:31:46.398Z,92.92
2023-12-16T02:34:13.785Z,93.20
2023-12-16T02:36:41.880Z,91.62
2023-12-16T02:39:08.974Z,91.59
2023-12-16T02:41:36.020Z,91.33
2023-12-16T02:44:03.063Z,90.97
2023-12-16T02:46:31.950Z,91.29
2023-12-16T02:48:59.066Z,91.15
2023-12-16T02:51:26.123Z,91.00
2023-12-16T02:53:54.520Z,91.13
2023-12-16T02:56:21.571Z,91.44
2023-12-16T02:58:51.499Z,91.47
2023-12-16T03:01:18.646Z,91.55
2023-12-16T03:03:45.971Z,92.19
2023-12-16T03:06:13.362Z,91.97
2023-12-16T03:08:40.378Z,91.71
2023-12-16T03:11:07.555Z,91.67
2023-12-16T03:13:34.609Z,91.67
2023-12-16T03:16:01.696Z,92.43
2023-12-16T03:18:28.997Z,92.88
2023-12-16T03:20:56.945Z,92.60
2023-12-16T03:23:23.954Z,92.66
2023-12-16T03:25:51.002Z,93.88
2023-12-16T03:28:18.066Z,98.23
2023-12-16T03:30:45.449Z,92.47
2023-12-16T03:33:12.897Z,92.33
2023-12-16T03:35:39.963Z,92.44
2023-12-16T03:38:06.997Z,92.77
2023-12-16T03:40:34.193Z,92.57
2023-12-16T03:43:01.257Z,92.66
2023-12-16T03:45:29.068Z,92.49
2023-12-16T03:47:56.160Z,92.91
2023-12-16T03:50:23.294Z,92.91
2023-12-16T03:52:50.300Z,93.27
2023-12-16T03:55:17.445Z,93.46
2023-12-16T03:57:44.598Z,93.00
2023-12-16T04:00:12.558Z,92.52
2023-12-16T04:02:39.889Z,92.90
2023-12-16T04:05:08.543Z,92.90
2023-12-16T04:07:35.790Z,92.67
2023-12-16T04:10:06.144Z,93.58
2023-12-16T04:12:33.442Z,93.11
2023-12-16T04:15:00.461Z,93.16
2023-12-16T04:17:27.530Z,92.50
2023-12-16T04:19:56.323Z,91.88
2023-12-16T04:22:23.896Z,91.73
2023-12-16T04:24:52.244Z,91.91
2023-12-16T04:27:19.566Z,92.15
2023-12-16T04:29:46.911Z,92.70
2023-12-16T04:32:13.988Z,92.76
2023-12-16T04:34:41.036Z,92.44
2023-12-16T04:37:08.324Z,92.48
2023-12-16T04:39:35.471Z,91.41
2023-12-16T04:42:02.540Z,91.76
2023-12-16T04:44:29.561Z,91.74
2023-12-16T04:46:56.655Z,92.21
2023-12-16T04:49:23.987Z,92.35
2023-12-16T04:51:51.092Z,92.83
2023-12-16T04:54:18.930Z,94.97
2023-12-16T04:56:45.975Z,94.97
2023-12-16T04:59:13.070Z,93.10
2023-12-16T05:01:40.306Z,92.41
2023-12-16T05:04:07.828Z,92.41
2023-12-16T05:06:34.952Z,92.14
2023-12-16T05:09:02.304Z,91.82
2023-12-16T05:11:29.265Z,91.82
2023-12-16T05:13:56.254Z,92.39
2023-12-16T05:16:23.458Z,92.40
2023-12-16T05:18:50.809Z,92.26
2023-12-16T05:21:18.412Z,92.26
2023-12-16T05:23:45.456Z,92.26
2023-12-16T05:26:12.530Z,92.50
2023-12-16T05:28:39.588Z,92.65
2023-12-16T05:31:07.069Z,92.81
2023-12-16T05:33:34.422Z,92.70
2023-12-16T05:36:01.601Z,92.49
2023-12-16T05:38:28.655Z,92.58
2023-12-16T05:40:55.753Z,91.73
2023-12-16T05:43:22.797Z,92.43
2023-12-16T05:45:49.890Z,92.31
2023-12-16T05:48:17.010Z,92.44
2023-12-16T05:50:44.151Z,92.06
2023-12-16T05:53:11.562Z,92.22
2023-12-16T05:55:48.826Z,92.01
2023-12-16T05:58:18.501Z,92.33
2023-12-16T06:00:47.613Z,91.98
2023-12-16T06:03:14.780Z,91.85
2023-12-16T06:05:42.406Z,92.08
2023-12-16T06:08:09.516Z,92.08
2023-12-16T06:10:36.573Z,91.92
2023-12-16T06:13:04.526Z,91.87
2023-12-16T06:15:31.598Z,91.87
2023-12-16T06:18:01.256Z,91.36
2023-12-16T06:20:28.411Z,91.31
2023-12-16T06:22:55.442Z,91.31
2023-12-16T06:25:22.464Z,91.57
2023-12-16T06:27:49.735Z,91.73
2023-12-16T06:30:17.090Z,91.35
2023-12-16T06:32:44.425Z,91.11
2023-12-16T06:35:11.636Z,91.34
2023-12-16T06:37:39.115Z,91.54
2023-12-16T06:40:09.062Z,91.87
2023-12-16T06:42:36.238Z,93.46
2023-12-16T06:45:03.290Z,92.35
2023-12-16T06:47:30.288Z,90.66
2023-12-16T06:49:57.468Z,90.24
2023-12-16T06:52:24.667Z,90.74
2023-12-16T06:54:51.749Z,90.28
2023-12-16T06:57:18.795Z,91.06
2023-12-16T06:59:45.960Z,90.95
2023-12-16T07:02:12.975Z,91.22
2023-12-16T07:04:40.006Z,91.04
2023-12-16T07:07:07.452Z,91.02
2023-12-16T07:09:34.649Z,90.67
2023-12-16T07:12:01.624Z,90.47
2023-12-16T07:14:30.410Z,91.04
2023-12-16T07:16:57.950Z,90.69
2023-12-16T07:19:25.142Z,90.59
2023-12-16T07:21:52.344Z,90.47
2023-12-16T07:24:19.366Z,90.50
2023-12-16T07:26:46.645Z,90.50
2023-12-16T07:29:14.897Z,90.61
2023-12-16T07:31:42.517Z,90.44
2023-12-16T07:34:12.009Z,91.21
2023-12-16T07:36:39.035Z,91.13
2023-12-16T07:39:06.071Z,91.96
2023-12-16T07:41:33.693Z,92.22
2023-12-16T07:44:00.676Z,92.08
2023-12-16T07:46:27.790Z,92.08
2023-12-16T07:48:55.233Z,91.86
2023-12-16T07:51:26.529Z,91.92
2023-12-16T07:53:56.999Z,91.77
2023-12-16T07:56:31.086Z,91.64
2023-12-16T07:59:01.189Z,90.88
2023-12-16T08:01:28.429Z,90.63
2023-12-16T08:03:55.829Z,89.96
2023-12-16T08:06:22.961Z,89.91
2023-12-16T08:08:50.033Z,88.79
2023-12-16T08:11:17.082Z,88.92
2023-12-16T08:13:44.141Z,87.66
2023-12-16T08:16:12.854Z,86.52
2023-12-16T08:18:40.193Z,85.91
2023-12-16T08:21:07.663Z,86.25
2023-12-16T08:23:34.750Z,85.20
2023-12-16T08:26:01.915Z,86.04
2023-12-16T08:28:29.106Z,86.44
2023-12-16T08:30:56.678Z,86.78
2023-12-16T08:33:23.764Z,87.44
2023-12-16T08:35:51.118Z,88.09
2023-12-16T08:38:18.138Z,87.90
2023-12-16T08:40:46.648Z,88.49
2023-12-16T08:43:13.790Z,88.90
2023-12-16T08:45:41.045Z,89.18
2023-12-16T08:48:08.165Z,88.30
2023-12-16T08:50:35.630Z,87.15
2023-12-16T08:53:02.668Z,85.92
2023-12-16T08:55:29.858Z,85.67
2023-12-16T08:57:57.000Z,85.93
2023-12-16T09:00:24.060Z,85.46
2023-12-16T09:02:51.088Z,85.78
2023-12-16T09:05:19.521Z,84.09
2023-12-16T09:07:46.688Z,81.96
2023-12-16T09:10:15.159Z,80.74
2023-12-16T09:12:42.397Z,80.31
2023-12-16T09:15:10.148Z,80.40
2023-12-16T09:17:37.622Z,79.80
2023-12-16T09:20:06.356Z,79.42
2023-12-16T09:22:33.591Z,76.45
2023-12-16T09:25:02.321Z,76.03
2023-12-16T09:27:29.413Z,73.32
2023-12-16T09:29:56.440Z,70.48
2023-12-16T09:32:23.570Z,67.27
2023-12-16T09:34:50.994Z,65.82
2023-12-16T09:37:18.172Z,63.51
2023-12-16T09:39:45.210Z,61.60
2023-12-16T09:42:13.923Z,60.94
2023-12-16T09:44:43.076Z,59.22
2023-12-16T09:47:12.635Z,58.15
2023-12-16T09:49:42.898Z,58.83
2023-12-16T09:52:10.531Z,58.53
2023-12-16T09:54:40.251Z,58.46
2023-12-16T09:57:12.776Z,58.56
2023-12-16T09:59:42.632Z,58.72
2023-12-16T10:02:29.278Z,59.66
2023-12-16T10:05:01.926Z,62.86
2023-12-16T10:07:29.146Z,63.12
2023-12-16T10:09:56.224Z,66.95
2023-12-16T10:12:23.585Z,70.64
2023-12-16T10:14:53.261Z,70.65
2023-12-16T10:17:23.015Z,73.93
2023-12-16T10:19:50.770Z,74.58
2023-12-16T10:22:22.386Z,76.11
2023-12-16T10:24:49.610Z,75.69
2023-12-16T10:27:20.938Z,76.96
2023-12-16T10:29:58.226Z,76.71
2023-12-16T10:32:33.694Z,75.60
2023-12-16T10:35:04.251Z,75.08
2023-12-16T10:37:31.487Z,76.05
2023-12-16T10:39:58.603Z,77.51
2023-12-16T10:42:25.894Z,77.60
2023-12-16T10:44:53.937Z,77.08
2023-12-16T10:47:27.655Z,76.91
2023-12-16T10:50:00.950Z,75.62
2023-12-16T10:52:41.042Z,76.08
2023-12-16T10:55:18.030Z,76.29
2023-12-16T10:57:56.567Z,77.52
2023-12-16T11:00:34.182Z,76.58
2023-12-16T11:03:13.919Z,76.30
2023-12-16T11:06:06.869Z,75.96
2023-12-16T11:08:37.481Z,75.11
2023-12-16T11:11:06.659Z,75.33
2023-12-16T11:13:36.542Z,71.58
2023-12-16T11:16:21.412Z,71.19
2023-12-16T11:18:51.629Z,71.12
2023-12-16T11:21:24.414Z,72.07
2023-12-16T11:23:51.477Z,70.59
2023-12-16T11:26:18.730Z,72.24
2023-12-16T11:28:45.935Z,69.84
2023-12-16T11:31:17.029Z,70.02
2023-12-16T11:33:49.364Z,69.97
2023-12-16T11:36:16.767Z,68.53
2023-12-16T11:38:48.411Z,68.10
2023-12-16T11:41:37.018Z,68.29
2023-12-16T11:44:04.056Z,70.52
2023-12-16T11:46:44.920Z,68.67
2023-12-16T11:49:17.278Z,68.62
2023-12-16T11:51:44.989Z,68.00
2023-12-16T11:54:16.021Z,67.64
2023-12-16T11:56:43.405Z,68.29
2023-12-16T11:59:10.675Z,69.62
2023-12-16T12:01:37.952Z,68.14
2023-12-16T12:04:06.197Z,68.12
2023-12-16T12:06:34.235Z,67.89
2023-12-16T12:09:01.792Z,67.24
2023-12-16T12:11:28.849Z,67.44
2023-12-16T12:13:57.940Z,68.52
2023-12-16T12:16:29.529Z,70.26
2023-12-16T12:18:58.152Z,71.02
2023-12-16T12:21:25.492Z,68.40
2023-12-16T12:23:52.589Z,68.35
2023-12-16T12:26:22.721Z,67.31
2023-12-16T12:29:01.832Z,66.55
2023-12-16T12:31:31.783Z,68.15
2023-12-16T12:33:59.223Z,67.01
2023-12-16T12:36:27.028Z,67.47
2023-12-16T12:38:55.426Z,67.76
2023-12-16T12:41:22.901Z,67.66
2023-12-16T12:43:50.034Z,68.97
2023-12-16T12:46:19.897Z,70.90
2023-12-16T12:48:57.708Z,69.32
2023-12-16T12:51:27.542Z,69.84
2023-12-16T12:54:01.849Z,69.80
2023-12-16T12:56:29.873Z,69.52
2023-12-16T12:58:58.591Z,70.44
2023-12-16T13:01:26.161Z,71.14
2023-12-16T13:03:53.611Z,70.84
2023-12-16T13:06:20.834Z,71.18
2023-12-16T13:08:47.882Z,71.79
2023-12-16T13:11:15.003Z,72.91
2023-12-16T13:13:42.229Z,72.91
2023-12-16T13:16:11.398Z,73.02
2023-12-16T13:18:43.491Z,73.20
2023-12-16T13:21:11.807Z,73.57
2023-12-16T13:23:39.655Z,73.41
2023-12-16T13:26:17.596Z,73.14
2023-12-16T13:28:44.722Z,73.13
2023-12-16T13:31:12.275Z,74.25
2023-12-16T13:33:42.207Z,73.50
2023-12-16T13:36:32.982Z,74.62
2023-12-16T13:38:58.369Z,74.50
2023-12-16T13:41:25.397Z,74.42
2023-12-16T13:43:52.532Z,74.56
2023-12-16T13:46:19.545Z,75.88
2023-12-16T13:48:46.878Z,75.05
2023-12-16T13:51:14.151Z,76.04
2023-12-16T13:53:41.264Z,75.67
2023-12-16T13:56:09.384Z,76.69
2023-12-16T13:58:36.480Z,77.39
2023-12-16T14:01:03.768Z,78.08
2023-12-16T14:03:31.028Z,77.83
2023-12-16T14:05:58.310Z,77.22
2023-12-16T14:08:25.529Z,77.34
2023-12-16T14:10:52.836Z,77.63
2023-12-16T14:13:19.919Z,77.88
2023-12-16T14:15:47.062Z,78.54
2023-12-16T14:18:15.342Z,79.37
2023-12-16T14:20:42.472Z,79.85
2023-12-16T14:23:09.764Z,79.43
2023-12-16T14:25:36.796Z,79.36
2023-12-16T14:28:03.938Z,79.48
2023-12-16T14:30:31.383Z,79.91
2023-12-16T14:32:58.802Z,79.70
2023-12-16T14:35:25.962Z,81.28
2023-12-16T14:37:54.390Z,81.75
2023-12-16T14:40:22.037Z,81.46
2023-12-16T14:42:49.099Z,82.05
2023-12-16T14:45:16.365Z,82.72
2023-12-16T14:47:43.738Z,82.36
2023-12-16T14:50:11.147Z,82.96
2023-12-16T14:52:38.594Z,82.63
2023-12-16T14:55:07.548Z,82.76
2023-12-16T14:57:37.056Z,82.93
2023-12-16T15:00:05.581Z,82.95
2023-12-16T15:02:32.945Z,83.38
2023-12-16T15:05:01.787Z,83.20
2023-12-16T15:07:29.293Z,83.95
2023-12-16T15:09:56.644Z,84.33
2023-12-16T15:12:23.780Z,83.86
2023-12-16T15:14:50.908Z,84.67
2023-12-16T15:17:19.477Z,84.52
2023-12-16T15:19:46.753Z,84.79
2023-12-16T15:22:13.940Z,85.94
2023-12-16T15:24:43.032Z,86.13
2023-12-16T15:27:10.381Z,86.31
2023-12-16T15:29:37.720Z,86.54
2023-12-16T15:32:05.595Z,85.95
2023-12-16T15:34:33.165Z,86.31
2023-12-16T15:37:08.516Z,86.36
2023-12-16T15:39:40.084Z,86.67
2023-12-16T15:42:08.577Z,86.99
2023-12-16T15:44:37.301Z,87.44
2023-12-16T15:47:05.395Z,87.77
2023-12-16T15:49:32.669Z,87.92
2023-12-16T15:52:00.027Z,87.92
2023-12-16T15:54:27.774Z,87.77
2023-12-16T15:56:54.978Z,87.71
2023-12-16T15:59:22.776Z,88.00
2023-12-16T16:01:51.468Z,87.97
2023-12-16T16:04:18.546Z,88.00
2023-12-16T16:06:46.066Z,88.08
2023-12-16T16:09:13.150Z,88.46
2023-12-16T16:11:40.480Z,87.96
2023-12-16T16:14:07.586Z,88.33
2023-12-16T16:16:34.549Z,88.33
2023-12-16T16:19:05.354Z,89.18
2023-12-16T16:21:34.494Z,89.25
2023-12-16T16:24:02.305Z,88.68
2023-12-16T16:26:29.346Z,89.68
2023-12-16T16:28:58.469Z,89.17
2023-12-16T16:31:25.496Z,89.30
2023-12-16T16:33:53.599Z,89.60
2023-12-16T16:36:21.030Z,89.88
2023-12-16T16:38:48.264Z,89.64
2023-12-16T16:41:16.525Z,90.21
2023-12-16T16:43:45.115Z,90.23
2023-12-16T16:46:12.258Z,90.67
2023-12-16T16:48:39.467Z,89.95
2023-12-16T16:51:06.721Z,89.95
2023-12-16T16:53:35.208Z,89.98
2023-12-16T16:56:02.831Z,90.34
2023-12-16T16:58:29.802Z,90.23
2023-12-16T17:00:56.879Z,90.56
2023-12-16T17:03:24.114Z,90.60
2023-12-16T17:05:51.304Z,90.17
2023-12-16T17:08:18.375Z,90.39
2023-12-16T17:10:45.393Z,90.79
2023-12-16T17:13:12.617Z,90.71
2023-12-16T17:15:39.716Z,90.81
2023-12-16T17:18:08.998Z,90.98
2023-12-16T17:20:36.165Z,90.98
2023-12-16T17:23:03.258Z,90.76
2023-12-16T17:25:30.648Z,90.79
2023-12-16T17:27:57.830Z,90.89
2023-12-16T17:30:25.004Z,90.46
2023-12-16T17:32:53.541Z,90.46
2023-12-16T17:35:20.815Z,90.24
2023-12-16T17:37:49.743Z,90.27
2023-12-16T17:40:16.889Z,90.27
2023-12-16T17:42:43.883Z,90.51
2023-12-16T17:45:11.147Z,90.65
2023-12-16T17:47:38.486Z,90.98
2023-12-16T17:50:06.708Z,90.66
2023-12-16T17:52:33.735Z,90.56
2023-12-16T17:55:00.748Z,91.04
2023-12-16T17:57:27.790Z,91.38
2023-12-16T17:59:56.044Z,91.33
2023-12-16T18:02:23.118Z,91.46
2023-12-16T18:04:50.255Z,91.53
2023-12-16T18:07:17.302Z,91.27
2023-12-16T18:09:44.309Z,91.17
2023-12-16T18:12:11.388Z,91.17
2023-12-16T18:14:38.903Z,91.52
2023-12-16T18:17:06.057Z,91.71
2023-12-16T18:19:33.813Z,91.80
2023-12-16T18:22:00.946Z,92.00
2023-12-16T18:24:28.164Z,97.62
2023-12-16T18:26:55.380Z,97.62
2023-12-16T18:29:22.495Z,91.41
2023-12-16T18:31:49.536Z,91.41
2023-12-16T18:34:17.095Z,91.37
2023-12-16T18:36:45.668Z,90.66
2023-12-16T18:39:14.611Z,90.77
2023-12-16T18:41:41.716Z,90.62
2023-12-16T18:44:08.873Z,90.47
2023-12-16T18:46:36.889Z,90.82
2023-12-16T18:49:04.103Z,90.85
2023-12-16T18:51:31.956Z,90.67
2023-12-16T18:53:59.020Z,90.89
2023-12-16T18:56:26.118Z,90.65
2023-12-16T18:58:53.263Z,90.79
2023-12-16T19:01:21.663Z,91.05
2023-12-16T19:03:49.130Z,90.55
2023-12-16T19:06:16.313Z,90.55
2023-12-16T19:08:45.119Z,91.34
2023-12-16T19:11:13.337Z,90.78
2023-12-16T19:13:40.414Z,90.85
2023-12-16T19:16:08.064Z,90.89
2023-12-16T19:18:35.131Z,91.78
2023-12-16T19:21:02.343Z,91.34
2023-12-16T19:23:29.357Z,91.38
2023-12-16T19:25:56.584Z,91.49
2023-12-16T19:28:23.709Z,91.62
2023-12-16T19:30:50.835Z,91.77
2023-12-16T19:33:18.049Z,91.93
2023-12-16T19:35:45.200Z,92.06
2023-12-16T19:38:12.210Z,91.97
2023-12-16T19:40:39.198Z,92.14
2023-12-16T19:43:06.226Z,91.98
2023-12-16T19:45:33.399Z,91.94
2023-12-16T19:48:00.620Z,92.08
2023-12-16T19:50:27.668Z,91.66
2023-12-16T19:52:55.263Z,91.75
2023-12-16T19:55:22.298Z,91.08
2023-12-16T19:57:49.522Z,91.35
2023-12-16T20:00:17.563Z,91.35
2023-12-16T20:02:44.640Z,92.27
2023-12-16T20:05:11.843Z,92.30
2023-12-16T20:07:40.087Z,90.94
2023-12-16T20:10:08.572Z,91.26
2023-12-16T20:12:35.612Z,90.89
2023-12-16T20:15:02.696Z,90.99
2023-12-16T20:17:30.160Z,90.77
2023-12-16T20:19:57.655Z,90.83
2023-12-16T20:22:24.770Z,90.97
2023-12-16T20:24:51.786Z,91.17
2023-12-16T20:27:19.081Z,91.17
2023-12-16T20:29:47.412Z,90.96
2023-12-16T20:32:14.464Z,91.04
2023-12-16T20:34:41.993Z,91.10
2023-12-16T20:37:14.236Z,91.01
2023-12-16T20:39:59.800Z,90.76
2023-12-16T20:42:26.817Z,90.53
2023-12-16T20:44:53.836Z,90.59
2023-12-16T20:47:20.883Z,90.87
2023-12-16T20:49:48.032Z,91.40
2023-12-16T20:52:15.162Z,91.37
2023-12-16T20:54:42.249Z,91.64
2023-12-16T20:57:09.263Z,91.78
2023-12-16T20:59:36.325Z,91.62
2023-12-16T21:02:09.081Z,91.62
2023-12-16T21:04:36.342Z,91.44
2023-12-16T21:07:03.782Z,91.47
2023-12-16T21:09:30.883Z,91.09
2023-12-16T21:11:58.001Z,91.21
2023-12-16T21:14:25.178Z,91.58
2023-12-16T21:16:52.260Z,91.58
2023-12-16T21:19:19.347Z,91.47
2023-12-16T21:21:46.934Z,91.01
2023-12-16T21:24:14.026Z,91.26
2023-12-16T21:26:42.819Z,90.95
2023-12-16T21:29:09.862Z,91.07
2023-12-16T21:31:36.934Z,90.77
2023-12-16T21:34:04.180Z,91.12
2023-12-16T21:36:31.397Z,91.25
2023-12-16T21:38:58.562Z,91.17
2023-12-16T21:41:25.643Z,90.95
2023-12-16T21:43:53.817Z,91.52
2023-12-16T21:46:21.826Z,92.17
2023-12-16T21:48:49.051Z,92.51
2023-12-16T21:51:16.166Z,92.61
2023-12-16T21:53:43.270Z,92.01
2023-12-16T21:56:10.579Z,91.29
2023-12-16T21:58:37.593Z,90.47
2023-12-16T22:01:04.877Z,90.57
2023-12-16T22:03:32.006Z,90.60
2023-12-16T22:06:00.001Z,90.55
2023-12-16T22:08:29.477Z,90.99
2023-12-16T22:10:58.240Z,91.01
2023-12-16T22:13:25.246Z,90.80
2023-12-16T22:15:52.339Z,90.82
2023-12-16T22:18:21.518Z,90.31
2023-12-16T22:20:49.177Z,90.81
2023-12-16T22:23:17.281Z,90.29
2023-12-16T22:25:45.060Z,90.89
2023-12-16T22:28:12.543Z,90.58
2023-12-16T22:30:39.670Z,91.25
2023-12-16T22:33:07.023Z,90.52
2023-12-16T22:35:34.095Z,90.45
2023-12-16T22:38:01.146Z,90.47
2023-12-16T22:40:28.181Z,91.48
2023-12-16T22:42:55.244Z,91.51
2023-12-16T22:45:22.386Z,91.57
2023-12-16T22:47:49.647Z,92.87
2023-12-16T22:50:17.226Z,91.86
2023-12-16T22:52:44.422Z,91.75
2023-12-16T22:55:11.933Z,91.54
2023-12-16T22:57:39.301Z,91.52
2023-12-16T23:00:27.340Z,91.30
2023-12-16T23:02:54.697Z,91.52
2023-12-16T23:05:22.291Z,91.52
2023-12-16T23:07:52.319Z,91.43
2023-12-16T23:10:25.549Z,91.32
2023-12-16T23:12:56.294Z,90.68
2023-12-16T23:15:23.456Z,90.55
2023-12-16T23:17:50.661Z,90.92
2023-12-16T23:20:18.006Z,91.00
2023-12-16T23:22:45.094Z,90.97
2023-12-16T23:25:12.189Z,91.36
2023-12-16T23:27:39.937Z,90.93
2023-12-16T23:30:08.134Z,90.78
2023-12-16T23:32:35.319Z,90.96
2023-12-16T23:35:02.548Z,91.29
2023-12-16T23:37:29.713Z,90.97
2023-12-16T23:39:56.782Z,90.72
2023-12-16T23:42:23.887Z,91.04
2023-12-16T23:44:51.002Z,90.80
2023-12-16T23:47:18.104Z,90.71
2023-12-16T23:49:46.521Z,90.94
2023-12-16T23:52:13.928Z,90.59
2023-12-16T23:54:41.030Z,90.82
2023-12-16T23:57:08.281Z,90.75
2023-12-16T23:59:35.439Z,90.75
